sensor_id;sensor_type;location;lat;lon;timestamp;P1;durP1;ratioP1;P2;durP2;ratioP2
1682;SDS011;13252;53.596;10.060;2022-08-19T00:02:16;21.13;;;18.87;;
1682;SDS011;13252;53.596;10.060;2022-08-19T00:04:44;25.50;;;21.93;;
1682;SDS011;13252;53.596;10.060;2022-08-19T00:07:14;24.70;;;22.00;;
1682;SDS011;13252;53.596;10.060;2022-08-19T00:09:41;27.47;;;24.13;;
1682;SDS011;13252;53.596;10.060;2022-08-19T00:12:09;33.57;;;24.77;;
1682;SDS011;13252;53.596;10.060;2022-08-19T00:14:37;38.70;;;26.83;;
1682;SDS011;13252;53.596;10.060;2022-08-19T00:17:08;30.10;;;26.90;;
1682;SDS011;13252;53.596;10.060;2022-08-19T00:19:36;33.80;;;26.27;;
1682;SDS011;13252;53.596;10.060;2022-08-19T00:22:04;33.97;;;25.97;;
1682;SDS011;13252;53.596;10.060;2022-08-19T00:24:32;31.50;;;26.13;;
1682;SDS011;13252;53.596;10.060;2022-08-19T00:27:00;31.50;;;26.20;;
1682;SDS011;13252;53.596;10.060;2022-08-19T00:29:48;28.23;;;25.03;;
1682;SDS011;13252;53.596;10.060;2022-08-19T00:32:19;33.97;;;26.73;;
1682;SDS011;13252;53.596;10.060;2022-08-19T00:34:49;28.20;;;25.07;;
1682;SDS011;13252;53.596;10.060;2022-08-19T00:37:18;33.57;;;26.30;;
1682;SDS011;13252;53.596;10.060;2022-08-19T00:39:48;34.03;;;25.17;;
1682;SDS011;13252;53.596;10.060;2022-08-19T00:42:17;31.00;;;24.77;;
1682;SDS011;13252;53.596;10.060;2022-08-19T00:44:46;31.53;;;22.60;;
1682;SDS011;13252;53.596;10.060;2022-08-19T00:47:14;36.03;;;27.03;;
1682;SDS011;13252;53.596;10.060;2022-08-19T00:49:43;35.70;;;24.60;;
1682;SDS011;13252;53.596;10.060;2022-08-19T00:52:19;31.97;;;25.07;;
1682;SDS011;13252;53.596;10.060;2022-08-19T00:54:50;45.73;;;24.60;;
1682;SDS011;13252;53.596;10.060;2022-08-19T00:57:20;37.47;;;24.57;;
1682;SDS011;13252;53.596;10.060;2022-08-19T00:59:51;33.10;;;25.03;;
1682;SDS011;13252;53.596;10.060;2022-08-19T01:02:28;38.37;;;26.30;;
1682;SDS011;13252;53.596;10.060;2022-08-19T01:04:58;35.73;;;27.43;;
1682;SDS011;13252;53.596;10.060;2022-08-19T01:07:26;31.13;;;26.13;;
1682;SDS011;13252;53.596;10.060;2022-08-19T01:10:01;34.73;;;27.10;;
1682;SDS011;13252;53.596;10.060;2022-08-19T01:12:29;37.33;;;26.90;;
1682;SDS011;13252;53.596;10.060;2022-08-19T01:14:57;30.70;;;25.20;;
1682;SDS011;13252;53.596;10.060;2022-08-19T01:17:26;32.30;;;24.13;;
1682;SDS011;13252;53.596;10.060;2022-08-19T01:19:54;31.30;;;25.10;;
1682;SDS011;13252;53.596;10.060;2022-08-19T01:22:28;29.13;;;23.97;;
1682;SDS011;13252;53.596;10.060;2022-08-19T01:24:59;29.47;;;24.57;;
1682;SDS011;13252;53.596;10.060;2022-08-19T01:27:36;29.77;;;23.63;;
1682;SDS011;13252;53.596;10.060;2022-08-19T01:30:10;32.20;;;25.17;;
1682;SDS011;13252;53.596;10.060;2022-08-19T01:32:39;29.73;;;24.80;;
1682;SDS011;13252;53.596;10.060;2022-08-19T01:35:07;28.53;;;23.43;;
1682;SDS011;13252;53.596;10.060;2022-08-19T01:37:43;32.50;;;24.83;;
1682;SDS011;13252;53.596;10.060;2022-08-19T01:40:12;27.77;;;23.73;;
1682;SDS011;13252;53.596;10.060;2022-08-19T01:42:40;31.40;;;23.70;;
1682;SDS011;13252;53.596;10.060;2022-08-19T01:45:08;30.27;;;24.83;;
1682;SDS011;13252;53.596;10.060;2022-08-19T01:47:36;29.33;;;24.10;;
1682;SDS011;13252;53.596;10.060;2022-08-19T01:50:05;32.03;;;26.07;;
1682;SDS011;13252;53.596;10.060;2022-08-19T01:52:35;32.27;;;23.87;;
1682;SDS011;13252;53.596;10.060;2022-08-19T01:55:05;30.03;;;24.73;;
1682;SDS011;13252;53.596;10.060;2022-08-19T01:57:35;26.07;;;23.27;;
1682;SDS011;13252;53.596;10.060;2022-08-19T02:00:04;28.77;;;22.97;;
1682;SDS011;13252;53.596;10.060;2022-08-19T02:02:36;33.40;;;25.90;;
1682;SDS011;13252;53.596;10.060;2022-08-19T02:05:04;29.60;;;25.13;;
1682;SDS011;13252;53.596;10.060;2022-08-19T02:07:36;32.43;;;24.97;;
1682;SDS011;13252;53.596;10.060;2022-08-19T02:10:09;36.97;;;26.30;;
1682;SDS011;13252;53.596;10.060;2022-08-19T02:12:41;34.20;;;27.23;;
1682;SDS011;13252;53.596;10.060;2022-08-19T02:15:10;36.03;;;27.80;;
1682;SDS011;13252;53.596;10.060;2022-08-19T02:17:38;36.40;;;27.30;;
1682;SDS011;13252;53.596;10.060;2022-08-19T02:20:06;35.63;;;26.80;;
1682;SDS011;13252;53.596;10.060;2022-08-19T02:22:35;34.47;;;26.70;;
1682;SDS011;13252;53.596;10.060;2022-08-19T02:25:03;40.13;;;29.00;;
1682;SDS011;13252;53.596;10.060;2022-08-19T02:27:33;32.90;;;27.07;;
1682;SDS011;13252;53.596;10.060;2022-08-19T02:30:01;38.53;;;28.43;;
1682;SDS011;13252;53.596;10.060;2022-08-19T02:32:29;35.57;;;27.27;;
1682;SDS011;13252;53.596;10.060;2022-08-19T02:34:59;38.43;;;27.23;;
1682;SDS011;13252;53.596;10.060;2022-08-19T02:37:37;35.63;;;26.10;;
1682;SDS011;13252;53.596;10.060;2022-08-19T02:40:28;38.73;;;27.50;;
1682;SDS011;13252;53.596;10.060;2022-08-19T02:43:01;41.93;;;29.50;;
1682;SDS011;13252;53.596;10.060;2022-08-19T02:45:31;38.03;;;26.63;;
1682;SDS011;13252;53.596;10.060;2022-08-19T02:47:59;40.47;;;28.43;;
1682;SDS011;13252;53.596;10.060;2022-08-19T02:50:30;46.00;;;28.30;;
1682;SDS011;13252;53.596;10.060;2022-08-19T02:52:58;42.13;;;28.23;;
1682;SDS011;13252;53.596;10.060;2022-08-19T02:55:25;43.53;;;29.40;;
1682;SDS011;13252;53.596;10.060;2022-08-19T02:57:53;43.87;;;28.50;;
1682;SDS011;13252;53.596;10.060;2022-08-19T03:00:22;49.00;;;27.87;;
1682;SDS011;13252;53.596;10.060;2022-08-19T03:02:50;42.83;;;28.73;;
1682;SDS011;13252;53.596;10.060;2022-08-19T03:05:18;54.70;;;28.77;;
1682;SDS011;13252;53.596;10.060;2022-08-19T03:08:06;40.93;;;27.60;;
1682;SDS011;13252;53.596;10.060;2022-08-19T03:10:39;45.60;;;30.60;;
1682;SDS011;13252;53.596;10.060;2022-08-19T03:13:08;54.87;;;33.13;;
1682;SDS011;13252;53.596;10.060;2022-08-19T03:15:39;56.23;;;31.50;;
1682;SDS011;13252;53.596;10.060;2022-08-19T03:18:08;56.90;;;32.50;;
1682;SDS011;13252;53.596;10.060;2022-08-19T03:20:41;44.17;;;29.70;;
1682;SDS011;13252;53.596;10.060;2022-08-19T03:23:10;43.13;;;29.13;;
1682;SDS011;13252;53.596;10.060;2022-08-19T03:25:40;46.57;;;29.67;;
1682;SDS011;13252;53.596;10.060;2022-08-19T03:28:09;48.27;;;29.83;;
1682;SDS011;13252;53.596;10.060;2022-08-19T03:30:40;52.57;;;31.33;;
1682;SDS011;13252;53.596;10.060;2022-08-19T03:33:09;49.10;;;28.40;;
1682;SDS011;13252;53.596;10.060;2022-08-19T03:36:04;42.20;;;27.50;;
1682;SDS011;13252;53.596;10.060;2022-08-19T03:38:34;43.00;;;28.37;;
1682;SDS011;13252;53.596;10.060;2022-08-19T03:41:03;46.77;;;28.13;;
1682;SDS011;13252;53.596;10.060;2022-08-19T03:43:34;43.60;;;27.07;;
1682;SDS011;13252;53.596;10.060;2022-08-19T03:46:06;41.60;;;28.37;;
1682;SDS011;13252;53.596;10.060;2022-08-19T03:48:35;44.70;;;29.77;;
1682;SDS011;13252;53.596;10.060;2022-08-19T03:51:03;54.37;;;30.70;;
1682;SDS011;13252;53.596;10.060;2022-08-19T03:53:31;43.83;;;28.53;;
1682;SDS011;13252;53.596;10.060;2022-08-19T03:56:00;48.13;;;29.70;;
1682;SDS011;13252;53.596;10.060;2022-08-19T03:58:29;48.50;;;31.13;;
1682;SDS011;13252;53.596;10.060;2022-08-19T04:00:57;50.37;;;32.63;;
1682;SDS011;13252;53.596;10.060;2022-08-19T04:03:26;47.00;;;32.23;;
1682;SDS011;13252;53.596;10.060;2022-08-19T04:05:54;48.83;;;29.40;;
1682;SDS011;13252;53.596;10.060;2022-08-19T04:08:22;51.73;;;30.67;;
1682;SDS011;13252;53.596;10.060;2022-08-19T04:10:49;51.53;;;31.63;;
1682;SDS011;13252;53.596;10.060;2022-08-19T04:13:17;44.63;;;29.40;;
1682;SDS011;13252;53.596;10.060;2022-08-19T04:15:45;43.63;;;28.60;;
1682;SDS011;13252;53.596;10.060;2022-08-19T04:18:13;43.40;;;30.30;;
1682;SDS011;13252;53.596;10.060;2022-08-19T04:20:43;46.70;;;28.07;;
1682;SDS011;13252;53.596;10.060;2022-08-19T04:23:12;46.17;;;30.20;;
1682;SDS011;13252;53.596;10.060;2022-08-19T04:25:41;44.37;;;29.43;;
1682;SDS011;13252;53.596;10.060;2022-08-19T04:28:11;42.57;;;29.10;;
1682;SDS011;13252;53.596;10.060;2022-08-19T04:30:40;42.67;;;28.23;;
1682;SDS011;13252;53.596;10.060;2022-08-19T04:33:09;46.83;;;32.33;;
1682;SDS011;13252;53.596;10.060;2022-08-19T04:35:38;48.40;;;31.93;;
1682;SDS011;13252;53.596;10.060;2022-08-19T04:38:08;49.80;;;32.43;;
1682;SDS011;13252;53.596;10.060;2022-08-19T04:40:39;53.43;;;34.80;;
1682;SDS011;13252;53.596;10.060;2022-08-19T04:43:25;55.03;;;36.63;;
1682;SDS011;13252;53.596;10.060;2022-08-19T04:45:53;54.07;;;36.37;;
1682;SDS011;13252;53.596;10.060;2022-08-19T04:48:22;62.67;;;37.97;;
1682;SDS011;13252;53.596;10.060;2022-08-19T04:50:53;55.53;;;36.37;;
1682;SDS011;13252;53.596;10.060;2022-08-19T04:53:25;52.23;;;37.40;;
1682;SDS011;13252;53.596;10.060;2022-08-19T04:55:55;68.47;;;40.30;;
1682;SDS011;13252;53.596;10.060;2022-08-19T04:58:23;62.33;;;38.83;;
1682;SDS011;13252;53.596;10.060;2022-08-19T05:00:52;68.03;;;39.53;;
1682;SDS011;13252;53.596;10.060;2022-08-19T05:03:20;67.63;;;40.50;;
1682;SDS011;13252;53.596;10.060;2022-08-19T05:05:53;59.10;;;37.57;;
1682;SDS011;13252;53.596;10.060;2022-08-19T05:08:21;62.90;;;38.40;;
1682;SDS011;13252;53.596;10.060;2022-08-19T05:10:58;72.90;;;41.43;;
1682;SDS011;13252;53.596;10.060;2022-08-19T05:13:26;60.53;;;37.77;;
1682;SDS011;13252;53.596;10.060;2022-08-19T05:15:54;57.33;;;39.10;;
1682;SDS011;13252;53.596;10.060;2022-08-19T05:18:22;66.77;;;41.43;;
1682;SDS011;13252;53.596;10.060;2022-08-19T05:21:08;64.23;;;39.17;;
1682;SDS011;13252;53.596;10.060;2022-08-19T05:23:53;74.63;;;39.80;;
1682;SDS011;13252;53.596;10.060;2022-08-19T05:26:22;61.37;;;38.00;;
1682;SDS011;13252;53.596;10.060;2022-08-19T05:28:52;65.23;;;40.60;;
1682;SDS011;13252;53.596;10.060;2022-08-19T05:31:20;68.60;;;40.37;;
1682;SDS011;13252;53.596;10.060;2022-08-19T05:33:48;62.00;;;38.50;;
1682;SDS011;13252;53.596;10.060;2022-08-19T05:36:16;61.97;;;39.70;;
1682;SDS011;13252;53.596;10.060;2022-08-19T05:38:46;55.43;;;37.83;;
1682;SDS011;13252;53.596;10.060;2022-08-19T05:41:16;51.90;;;37.40;;
1682;SDS011;13252;53.596;10.060;2022-08-19T05:43:45;67.20;;;39.87;;
1682;SDS011;13252;53.596;10.060;2022-08-19T05:46:16;62.67;;;40.27;;
1682;SDS011;13252;53.596;10.060;2022-08-19T05:48:53;58.87;;;41.77;;
1682;SDS011;13252;53.596;10.060;2022-08-19T05:51:22;70.17;;;41.93;;
1682;SDS011;13252;53.596;10.060;2022-08-19T05:53:54;66.03;;;41.90;;
1682;SDS011;13252;53.596;10.060;2022-08-19T05:56:22;59.73;;;40.17;;
1682;SDS011;13252;53.596;10.060;2022-08-19T05:58:51;63.03;;;38.73;;
1682;SDS011;13252;53.596;10.060;2022-08-19T06:01:20;68.60;;;40.23;;
1682;SDS011;13252;53.596;10.060;2022-08-19T06:03:48;66.23;;;38.73;;
1682;SDS011;13252;53.596;10.060;2022-08-19T06:06:16;62.47;;;40.40;;
1682;SDS011;13252;53.596;10.060;2022-08-19T06:08:44;57.47;;;39.10;;
1682;SDS011;13252;53.596;10.060;2022-08-19T06:11:19;63.80;;;38.20;;
1682;SDS011;13252;53.596;10.060;2022-08-19T06:13:48;61.13;;;38.50;;
1682;SDS011;13252;53.596;10.060;2022-08-19T06:16:25;67.23;;;39.50;;
1682;SDS011;13252;53.596;10.060;2022-08-19T06:18:54;57.93;;;37.80;;
1682;SDS011;13252;53.596;10.060;2022-08-19T06:21:24;58.67;;;37.53;;
1682;SDS011;13252;53.596;10.060;2022-08-19T06:23:54;69.93;;;36.93;;
1682;SDS011;13252;53.596;10.060;2022-08-19T06:26:22;62.70;;;37.67;;
1682;SDS011;13252;53.596;10.060;2022-08-19T06:28:52;55.97;;;36.23;;
1682;SDS011;13252;53.596;10.060;2022-08-19T06:31:20;49.50;;;34.20;;
1682;SDS011;13252;53.596;10.060;2022-08-19T06:33:50;50.17;;;32.60;;
1682;SDS011;13252;53.596;10.060;2022-08-19T06:36:18;49.00;;;32.97;;
1682;SDS011;13252;53.596;10.060;2022-08-19T06:38:51;54.10;;;34.00;;
1682;SDS011;13252;53.596;10.060;2022-08-19T06:41:18;47.10;;;32.93;;
1682;SDS011;13252;53.596;10.060;2022-08-19T06:43:46;50.10;;;33.53;;
1682;SDS011;13252;53.596;10.060;2022-08-19T06:46:20;47.37;;;34.93;;
1682;SDS011;13252;53.596;10.060;2022-08-19T06:48:49;46.87;;;32.83;;
1682;SDS011;13252;53.596;10.060;2022-08-19T06:51:19;50.57;;;34.10;;
1682;SDS011;13252;53.596;10.060;2022-08-19T06:53:48;48.30;;;35.37;;
1682;SDS011;13252;53.596;10.060;2022-08-19T06:56:22;46.33;;;34.97;;
1682;SDS011;13252;53.596;10.060;2022-08-19T06:58:57;54.00;;;33.90;;
1682;SDS011;13252;53.596;10.060;2022-08-19T07:01:26;60.00;;;37.27;;
1682;SDS011;13252;53.596;10.060;2022-08-19T07:03:54;67.80;;;39.00;;
1682;SDS011;13252;53.596;10.060;2022-08-19T07:06:23;53.50;;;36.27;;
1682;SDS011;13252;53.596;10.060;2022-08-19T07:09:10;58.23;;;38.50;;
1682;SDS011;13252;53.596;10.060;2022-08-19T07:11:39;56.30;;;36.27;;
1682;SDS011;13252;53.596;10.060;2022-08-19T07:14:11;60.33;;;38.00;;
1682;SDS011;13252;53.596;10.060;2022-08-19T07:16:46;58.50;;;34.90;;
1682;SDS011;13252;53.596;10.060;2022-08-19T07:19:15;61.13;;;38.10;;
1682;SDS011;13252;53.596;10.060;2022-08-19T07:21:45;66.10;;;38.07;;
1682;SDS011;13252;53.596;10.060;2022-08-19T07:24:13;61.57;;;38.70;;
1682;SDS011;13252;53.596;10.060;2022-08-19T07:26:42;52.70;;;35.83;;
1682;SDS011;13252;53.596;10.060;2022-08-19T07:29:10;50.73;;;35.57;;
1682;SDS011;13252;53.596;10.060;2022-08-19T07:31:39;65.93;;;36.73;;
1682;SDS011;13252;53.596;10.060;2022-08-19T07:34:11;50.00;;;34.67;;
1682;SDS011;13252;53.596;10.060;2022-08-19T07:36:41;59.87;;;35.93;;
1682;SDS011;13252;53.596;10.060;2022-08-19T07:39:12;53.53;;;35.57;;
1682;SDS011;13252;53.596;10.060;2022-08-19T07:41:42;51.17;;;33.47;;
1682;SDS011;13252;53.596;10.060;2022-08-19T07:44:11;47.97;;;32.90;;
1682;SDS011;13252;53.596;10.060;2022-08-19T07:46:41;58.17;;;33.60;;
1682;SDS011;13252;53.596;10.060;2022-08-19T07:49:14;53.43;;;33.27;;
1682;SDS011;13252;53.596;10.060;2022-08-19T07:51:45;45.67;;;32.83;;
1682;SDS011;13252;53.596;10.060;2022-08-19T07:54:13;47.77;;;33.00;;
1682;SDS011;13252;53.596;10.060;2022-08-19T07:56:41;50.40;;;33.17;;
1682;SDS011;13252;53.596;10.060;2022-08-19T07:59:08;49.07;;;33.30;;
1682;SDS011;13252;53.596;10.060;2022-08-19T08:01:36;47.93;;;32.80;;
1682;SDS011;13252;53.596;10.060;2022-08-19T08:04:07;52.77;;;34.03;;
1682;SDS011;13252;53.596;10.060;2022-08-19T08:06:54;49.17;;;35.53;;
1682;SDS011;13252;53.596;10.060;2022-08-19T08:09:40;50.17;;;33.30;;
1682;SDS011;13252;53.596;10.060;2022-08-19T08:12:15;49.50;;;32.87;;
1682;SDS011;13252;53.596;10.060;2022-08-19T08:15:01;46.20;;;32.13;;
1682;SDS011;13252;53.596;10.060;2022-08-19T08:17:33;48.43;;;34.50;;
1682;SDS011;13252;53.596;10.060;2022-08-19T08:20:17;43.90;;;31.43;;
1682;SDS011;13252;53.596;10.060;2022-08-19T08:22:47;40.43;;;30.17;;
1682;SDS011;13252;53.596;10.060;2022-08-19T08:25:33;44.53;;;31.40;;
1682;SDS011;13252;53.596;10.060;2022-08-19T08:28:02;44.30;;;28.20;;
1682;SDS011;13252;53.596;10.060;2022-08-19T08:30:31;39.83;;;27.13;;
1682;SDS011;13252;53.596;10.060;2022-08-19T08:33:02;38.20;;;26.43;;
1682;SDS011;13252;53.596;10.060;2022-08-19T08:35:30;38.80;;;25.70;;
1682;SDS011;13252;53.596;10.060;2022-08-19T08:37:59;40.17;;;26.43;;
1682;SDS011;13252;53.596;10.060;2022-08-19T08:40:28;36.07;;;24.93;;
1682;SDS011;13252;53.596;10.060;2022-08-19T08:42:59;34.63;;;25.60;;
1682;SDS011;13252;53.596;10.060;2022-08-19T08:45:38;35.93;;;25.10;;
1682;SDS011;13252;53.596;10.060;2022-08-19T08:48:20;34.07;;;25.00;;
1682;SDS011;13252;53.596;10.060;2022-08-19T08:50:50;32.30;;;23.97;;
1682;SDS011;13252;53.596;10.060;2022-08-19T08:53:20;39.87;;;25.83;;
1682;SDS011;13252;53.596;10.060;2022-08-19T08:55:55;35.33;;;24.90;;
1682;SDS011;13252;53.596;10.060;2022-08-19T08:58:24;32.77;;;25.07;;
1682;SDS011;13252;53.596;10.060;2022-08-19T09:00:56;32.47;;;25.07;;
1682;SDS011;13252;53.596;10.060;2022-08-19T09:03:24;46.10;;;22.20;;
1682;SDS011;13252;53.596;10.060;2022-08-19T09:05:59;32.10;;;25.17;;
1682;SDS011;13252;53.596;10.060;2022-08-19T09:08:32;33.40;;;23.43;;
1682;SDS011;13252;53.596;10.060;2022-08-19T09:11:10;36.70;;;27.20;;
1682;SDS011;13252;53.596;10.060;2022-08-19T09:14:06;36.30;;;24.70;;
1682;SDS011;13252;53.596;10.060;2022-08-19T09:16:57;31.87;;;23.17;;
1682;SDS011;13252;53.596;10.060;2022-08-19T09:19:25;33.87;;;23.50;;
1682;SDS011;13252;53.596;10.060;2022-08-19T09:21:54;31.43;;;23.43;;
1682;SDS011;13252;53.596;10.060;2022-08-19T09:24:23;34.13;;;24.27;;
1682;SDS011;13252;53.596;10.060;2022-08-19T09:26:56;39.50;;;24.80;;
1682;SDS011;13252;53.596;10.060;2022-08-19T09:29:24;33.00;;;24.57;;
1682;SDS011;13252;53.596;10.060;2022-08-19T09:31:52;31.97;;;24.23;;
1682;SDS011;13252;53.596;10.060;2022-08-19T09:34:19;29.90;;;23.37;;
1682;SDS011;13252;53.596;10.060;2022-08-19T09:36:47;32.30;;;22.40;;
1682;SDS011;13252;53.596;10.060;2022-08-19T09:39:19;31.67;;;22.30;;
1682;SDS011;13252;53.596;10.060;2022-08-19T09:41:49;32.83;;;21.77;;
1682;SDS011;13252;53.596;10.060;2022-08-19T09:44:17;33.73;;;21.77;;
1682;SDS011;13252;53.596;10.060;2022-08-19T09:46:47;30.40;;;22.93;;
1682;SDS011;13252;53.596;10.060;2022-08-19T09:49:15;25.53;;;21.27;;
1682;SDS011;13252;53.596;10.060;2022-08-19T09:51:44;29.07;;;21.23;;
1682;SDS011;13252;53.596;10.060;2022-08-19T09:54:17;33.53;;;21.63;;
1682;SDS011;13252;53.596;10.060;2022-08-19T09:56:52;25.00;;;19.23;;
1682;SDS011;13252;53.596;10.060;2022-08-19T09:59:20;36.33;;;21.30;;
1682;SDS011;13252;53.596;10.060;2022-08-19T10:01:48;35.07;;;18.10;;
1682;SDS011;13252;53.596;10.060;2022-08-19T10:04:16;23.93;;;18.27;;
1682;SDS011;13252;53.596;10.060;2022-08-19T10:06:47;26.77;;;21.07;;
1682;SDS011;13252;53.596;10.060;2022-08-19T10:09:19;30.77;;;20.67;;
1682;SDS011;13252;53.596;10.060;2022-08-19T10:12:01;25.67;;;20.70;;
1682;SDS011;13252;53.596;10.060;2022-08-19T10:14:31;32.00;;;20.47;;
1682;SDS011;13252;53.596;10.060;2022-08-19T10:16:59;29.23;;;18.93;;
1682;SDS011;13252;53.596;10.060;2022-08-19T10:19:45;29.10;;;19.40;;
1682;SDS011;13252;53.596;10.060;2022-08-19T10:22:21;26.03;;;20.87;;
1682;SDS011;13252;53.596;10.060;2022-08-19T10:24:51;30.60;;;20.20;;
1682;SDS011;13252;53.596;10.060;2022-08-19T10:27:20;30.13;;;21.93;;
1682;SDS011;13252;53.596;10.060;2022-08-19T10:29:48;30.13;;;21.90;;
1682;SDS011;13252;53.596;10.060;2022-08-19T10:32:15;25.60;;;18.97;;
1682;SDS011;13252;53.596;10.060;2022-08-19T10:34:43;28.87;;;20.20;;
1682;SDS011;13252;53.596;10.060;2022-08-19T10:37:14;24.80;;;19.67;;
1682;SDS011;13252;53.596;10.060;2022-08-19T10:39:54;33.53;;;20.50;;
1682;SDS011;13252;53.596;10.060;2022-08-19T10:42:23;27.00;;;21.00;;
1682;SDS011;13252;53.596;10.060;2022-08-19T10:44:50;27.07;;;22.00;;
1682;SDS011;13252;53.596;10.060;2022-08-19T10:47:18;29.60;;;20.23;;
1682;SDS011;13252;53.596;10.060;2022-08-19T10:49:51;28.27;;;20.23;;
1682;SDS011;13252;53.596;10.060;2022-08-19T10:52:46;29.07;;;21.37;;
1682;SDS011;13252;53.596;10.060;2022-08-19T10:55:16;28.30;;;21.80;;
1682;SDS011;13252;53.596;10.060;2022-08-19T10:58:08;28.40;;;20.97;;
1682;SDS011;13252;53.596;10.060;2022-08-19T11:00:37;28.10;;;23.40;;
1682;SDS011;13252;53.596;10.060;2022-08-19T11:03:06;35.00;;;22.37;;
1682;SDS011;13252;53.596;10.060;2022-08-19T11:05:35;30.37;;;23.80;;
1682;SDS011;13252;53.596;10.060;2022-08-19T11:08:05;33.97;;;23.87;;
1682;SDS011;13252;53.596;10.060;2022-08-19T11:10:49;30.60;;;24.20;;
1682;SDS011;13252;53.596;10.060;2022-08-19T11:13:21;30.90;;;24.00;;
1682;SDS011;13252;53.596;10.060;2022-08-19T11:15:55;28.73;;;23.70;;
1682;SDS011;13252;53.596;10.060;2022-08-19T11:18:28;36.07;;;23.80;;
1682;SDS011;13252;53.596;10.060;2022-08-19T11:21:04;34.40;;;23.57;;
1682;SDS011;13252;53.596;10.060;2022-08-19T11:23:33;34.00;;;23.63;;
1682;SDS011;13252;53.596;10.060;2022-08-19T11:26:00;26.43;;;22.50;;
1682;SDS011;13252;53.596;10.060;2022-08-19T11:28:29;33.63;;;21.73;;
1682;SDS011;13252;53.596;10.060;2022-08-19T11:30:57;28.03;;;22.83;;
1682;SDS011;13252;53.596;10.060;2022-08-19T11:33:25;26.00;;;21.90;;
1682;SDS011;13252;53.596;10.060;2022-08-19T11:35:53;27.53;;;21.00;;
1682;SDS011;13252;53.596;10.060;2022-08-19T11:38:21;29.53;;;20.50;;
1682;SDS011;13252;53.596;10.060;2022-08-19T11:40:53;28.00;;;22.60;;
1682;SDS011;13252;53.596;10.060;2022-08-19T11:43:22;24.60;;;22.00;;
1682;SDS011;13252;53.596;10.060;2022-08-19T11:45:51;30.60;;;22.07;;
1682;SDS011;13252;53.596;10.060;2022-08-19T11:48:19;27.63;;;20.60;;
1682;SDS011;13252;53.596;10.060;2022-08-19T11:50:48;20.70;;;18.23;;
1682;SDS011;13252;53.596;10.060;2022-08-19T11:53:16;23.40;;;18.90;;
1682;SDS011;13252;53.596;10.060;2022-08-19T11:55:45;29.77;;;18.87;;
1682;SDS011;13252;53.596;10.060;2022-08-19T11:58:13;23.33;;;18.93;;
1682;SDS011;13252;53.596;10.060;2022-08-19T12:00:44;24.40;;;18.17;;
1682;SDS011;13252;53.596;10.060;2022-08-19T12:03:13;23.83;;;18.67;;
1682;SDS011;13252;53.596;10.060;2022-08-19T12:05:41;31.03;;;18.33;;
1682;SDS011;13252;53.596;10.060;2022-08-19T12:08:09;18.97;;;17.00;;
1682;SDS011;13252;53.596;10.060;2022-08-19T12:10:38;18.70;;;16.10;;
1682;SDS011;13252;53.596;10.060;2022-08-19T12:13:07;19.83;;;16.47;;
1682;SDS011;13252;53.596;10.060;2022-08-19T12:15:35;18.27;;;16.37;;
1682;SDS011;13252;53.596;10.060;2022-08-19T12:18:03;17.60;;;15.70;;
1682;SDS011;13252;53.596;10.060;2022-08-19T12:20:35;18.00;;;15.60;;
1682;SDS011;13252;53.596;10.060;2022-08-19T12:23:03;18.20;;;15.90;;
1682;SDS011;13252;53.596;10.060;2022-08-19T12:25:31;22.60;;;16.20;;
1682;SDS011;13252;53.596;10.060;2022-08-19T12:28:00;19.03;;;16.10;;
1682;SDS011;13252;53.596;10.060;2022-08-19T12:30:29;19.00;;;15.70;;
1682;SDS011;13252;53.596;10.060;2022-08-19T12:32:57;18.63;;;15.27;;
1682;SDS011;13252;53.596;10.060;2022-08-19T12:35:25;19.27;;;15.03;;
1682;SDS011;13252;53.596;10.060;2022-08-19T12:37:54;16.43;;;14.47;;
1682;SDS011;13252;53.596;10.060;2022-08-19T12:40:23;16.37;;;14.63;;
1682;SDS011;13252;53.596;10.060;2022-08-19T12:42:52;21.30;;;14.40;;
1682;SDS011;13252;53.596;10.060;2022-08-19T12:45:19;24.60;;;16.87;;
1682;SDS011;13252;53.596;10.060;2022-08-19T12:47:47;20.27;;;17.27;;
1682;SDS011;13252;53.596;10.060;2022-08-19T12:50:20;19.60;;;16.10;;
1682;SDS011;13252;53.596;10.060;2022-08-19T12:52:47;20.67;;;16.77;;
1682;SDS011;13252;53.596;10.060;2022-08-19T12:55:17;19.33;;;15.77;;
1682;SDS011;13252;53.596;10.060;2022-08-19T12:57:45;16.70;;;14.63;;
1682;SDS011;13252;53.596;10.060;2022-08-19T13:00:16;16.63;;;14.37;;
1682;SDS011;13252;53.596;10.060;2022-08-19T13:02:47;20.30;;;15.57;;
1682;SDS011;13252;53.596;10.060;2022-08-19T13:05:17;16.37;;;14.67;;
1682;SDS011;13252;53.596;10.060;2022-08-19T13:07:48;17.00;;;15.00;;
1682;SDS011;13252;53.596;10.060;2022-08-19T13:10:19;19.30;;;17.20;;
1682;SDS011;13252;53.596;10.060;2022-08-19T13:12:48;18.30;;;15.43;;
1682;SDS011;13252;53.596;10.060;2022-08-19T13:15:17;16.97;;;15.23;;
1682;SDS011;13252;53.596;10.060;2022-08-19T13:17:50;18.57;;;15.33;;
1682;SDS011;13252;53.596;10.060;2022-08-19T13:20:19;17.70;;;14.87;;
1682;SDS011;13252;53.596;10.060;2022-08-19T13:22:47;16.87;;;14.20;;
1682;SDS011;13252;53.596;10.060;2022-08-19T13:25:15;22.40;;;14.73;;
1682;SDS011;13252;53.596;10.060;2022-08-19T13:27:47;15.33;;;13.73;;
1682;SDS011;13252;53.596;10.060;2022-08-19T13:30:16;15.07;;;13.60;;
1682;SDS011;13252;53.596;10.060;2022-08-19T13:33:03;14.27;;;12.77;;
1682;SDS011;13252;53.596;10.060;2022-08-19T13:35:43;15.13;;;13.67;;
1682;SDS011;13252;53.596;10.060;2022-08-19T13:38:13;14.17;;;12.87;;
1682;SDS011;13252;53.596;10.060;2022-08-19T13:40:42;18.47;;;15.90;;
1682;SDS011;13252;53.596;10.060;2022-08-19T13:43:12;15.90;;;14.20;;
1682;SDS011;13252;53.596;10.060;2022-08-19T13:45:49;15.03;;;13.53;;
1682;SDS011;13252;53.596;10.060;2022-08-19T13:48:18;15.97;;;13.27;;
1682;SDS011;13252;53.596;10.060;2022-08-19T13:50:46;14.77;;;13.10;;
1682;SDS011;13252;53.596;10.060;2022-08-19T13:53:14;15.53;;;13.93;;
1682;SDS011;13252;53.596;10.060;2022-08-19T13:55:42;16.70;;;13.53;;
1682;SDS011;13252;53.596;10.060;2022-08-19T13:58:12;14.77;;;13.40;;
1682;SDS011;13252;53.596;10.060;2022-08-19T14:00:40;15.00;;;13.43;;
1682;SDS011;13252;53.596;10.060;2022-08-19T14:03:10;16.10;;;14.70;;
1682;SDS011;13252;53.596;10.060;2022-08-19T14:05:38;15.40;;;13.80;;
1682;SDS011;13252;53.596;10.060;2022-08-19T14:08:06;15.77;;;13.20;;
1682;SDS011;13252;53.596;10.060;2022-08-19T14:10:34;16.60;;;14.80;;
1682;SDS011;13252;53.596;10.060;2022-08-19T14:13:02;15.30;;;13.53;;
1682;SDS011;13252;53.596;10.060;2022-08-19T14:15:32;13.67;;;12.27;;
1682;SDS011;13252;53.596;10.060;2022-08-19T14:17:59;12.13;;;11.03;;
1682;SDS011;13252;53.596;10.060;2022-08-19T14:20:27;14.43;;;13.03;;
1682;SDS011;13252;53.596;10.060;2022-08-19T14:22:55;14.60;;;13.20;;
1682;SDS011;13252;53.596;10.060;2022-08-19T14:25:23;13.63;;;12.33;;
1682;SDS011;13252;53.596;10.060;2022-08-19T14:27:52;12.83;;;11.63;;
1682;SDS011;13252;53.596;10.060;2022-08-19T14:30:22;15.20;;;12.90;;
1682;SDS011;13252;53.596;10.060;2022-08-19T14:32:53;13.07;;;11.80;;
1682;SDS011;13252;53.596;10.060;2022-08-19T14:35:21;18.07;;;13.40;;
1682;SDS011;13252;53.596;10.060;2022-08-19T14:37:49;21.77;;;15.50;;
1682;SDS011;13252;53.596;10.060;2022-08-19T14:40:20;16.97;;;15.30;;
1682;SDS011;13252;53.596;10.060;2022-08-19T14:42:52;16.50;;;14.80;;